Time;durP1;ratioP1;P1;durP2;ratioP2;P2;SDS_P1;SDS_P2;PMS_P1;PMS_P2;Temp;Humidity;BMP_temperature;BMP_pressure;BME280_temperature;BME280_humidity;BME280_pressure;Samples;Min_cycle;Max_cycle;Signal;HPM_P1;HPM_P2
2021/08/11 00:02:00;;;;;;;2.62;2.42;;;;;;;27.67;44.04;99545.97;1770526;80;21518;-63
2021/08/11 00:04:26;;;;;;;3.22;2.92;;;;;;;27.66;44.01;99547.05;1765813;80;21029;-64
2021/08/11 00:06:53;;;;;;;3.20;2.90;;;;;;;27.63;44.01;99547.09;1784151;79;21084;-64
2021/08/11 00:09:19;;;;;;;5.75;2.98;;;;;;;27.64;44.19;99554.72;1776712;79;21146;-65
2021/08/11 00:11:47;;;;;;;2.70;2.50;;;;;;;27.63;44.20;99549.81;1790476;79;21033;-65
2021/08/11 00:14:14;;;;;;;2.80;2.55;;;;;;;27.62;44.22;99544.11;1775536;79;21089;-68
2021/08/11 00:16:42;;;;;;;3.27;2.60;;;;;;;27.60;44.26;99542.22;1787323;79;22371;-64
2021/08/11 00:19:08;;;;;;;3.33;3.05;;;;;;;27.61;44.26;99544.39;1787322;79;21540;-64
2021/08/11 00:21:35;;;;;;;4.30;3.00;;;;;;;27.59;44.31;99550.13;1781128;79;21209;-64
2021/08/11 00:24:03;;;;;;;3.40;3.20;;;;;;;27.59;44.29;99556.14;1780087;79;21014;-65
2021/08/11 00:26:30;;;;;;;5.08;3.12;;;;;;;27.58;44.31;99551.24;1780374;79;21176;-66
2021/08/11 00:28:57;;;;;;;3.17;2.87;;;;;;;27.57;44.34;99557.78;1793200;79;21086;-66
2021/08/11 00:31:24;;;;;;;4.85;3.33;;;;;;;27.56;44.18;99552.05;1781635;80;21130;-64
2021/08/11 00:33:51;;;;;;;3.70;3.20;;;;;;;27.55;44.15;99557.26;1783594;79;21545;-66
2021/08/11 00:36:18;;;;;;;3.65;3.20;;;;;;;27.55;44.12;99559.98;1787654;79;21070;-65
2021/08/11 00:38:45;;;;;;;3.47;3.17;;;;;;;27.52;44.11;99553.72;1773182;80;21042;-66
2021/08/11 00:41:12;;;;;;;3.27;2.95;;;;;;;27.51;44.23;99552.11;1783800;79;21529;-64
2021/08/11 00:43:42;;;;;;;3.35;2.95;;;;;;;27.50;44.23;99545.01;1782372;79;21089;-63
2021/08/11 00:46:11;;;;;;;3.35;3.08;;;;;;;27.50;44.21;99540.92;1779165;80;21092;-63
2021/08/11 00:48:38;;;;;;;4.08;3.40;;;;;;;27.48;44.27;99536.86;1780856;79;21041;-65
2021/08/11 00:51:06;;;;;;;3.50;3.20;;;;;;;27.48;44.25;99535.50;1778888;80;21069;-65
2021/08/11 00:53:33;;;;;;;3.80;3.50;;;;;;;27.45;44.30;99537.70;1779417;80;21520;-65
2021/08/11 00:56:00;;;;;;;3.70;3.30;;;;;;;27.46;44.30;99538.50;1791180;79;21105;-65
2021/08/11 00:58:27;;;;;;;3.50;3.20;;;;;;;27.45;44.34;99535.52;1766837;80;21038;-64
2021/08/11 01:00:54;;;;;;;3.42;3.12;;;;;;;27.44;44.25;99543.43;1789026;80;21120;-64
2021/08/11 01:03:23;;;;;;;3.02;2.72;;;;;;;27.42;44.33;99535.52;1760237;80;21069;-65
2021/08/11 01:05:53;;;;;;;3.35;3.05;;;;;;;27.41;44.29;99539.37;1793350;79;21290;-65
2021/08/11 01:08:21;;;;;;;4.05;3.50;;;;;;;27.41;44.32;99538.53;1777935;80;21071;-65
2021/08/11 01:10:50;;;;;;;3.95;3.40;;;;;;;27.39;44.33;99533.38;1786130;80;21581;-65
2021/08/11 01:13:17;;;;;;;5.22;3.62;;;;;;;27.39;44.36;99533.91;1756152;80;21057;-65
2021/08/11 01:15:47;;;;;;;3.20;3.00;;;;;;;27.37;44.40;99531.49;1791267;79;21041;-66
2021/08/11 01:18:18;;;;;;;3.85;3.35;;;;;;;27.37;44.49;99530.66;1769210;79;21050;-64
2021/08/11 01:21:07;;;;;;;3.75;3.35;;;;;;;27.35;44.49;99529.60;1791717;79;21053;-64
2021/08/11 01:23:56;;;;;;;4.55;3.17;;;;;;;27.34;44.56;99519.78;1791925;79;21853;-64
2021/08/11 01:26:49;;;;;;;3.27;2.98;;;;;;;27.31;44.65;99514.88;1777189;80;21131;-64
2021/08/11 01:29:18;;;;;;;3.75;3.45;;;;;;;27.30;44.72;99515.99;1789871;80;21064;-64
2021/08/11 01:32:00;;;;;;;4.30;3.22;;;;;;;27.28;44.79;99512.73;1790587;80;21025;-66
2021/08/11 01:34:38;;;;;;;4.00;3.65;;;;;;;27.26;44.78;99515.75;1730544;80;21034;-66
2021/08/11 01:37:08;;;;;;;3.42;3.22;;;;;;;27.24;44.85;99507.03;1789546;79;21140;-65
2021/08/11 01:39:43;;;;;;;3.42;3.12;;;;;;;27.23;44.89;99514.91;1779728;79;21005;-65
2021/08/11 01:42:23;;;;;;;3.67;3.37;;;;;;;27.23;44.93;99512.73;1803396;78;21543;-65
2021/08/11 01:44:59;;;;;;;5.17;3.10;;;;;;;27.22;45.03;99514.66;1820760;78;21044;-64
2021/08/11 01:47:36;;;;;;;3.40;3.10;;;;;;;27.20;45.05;99514.13;1774574;80;21021;-65
2021/08/11 01:50:07;;;;;;;4.15;3.85;;;;;;;27.19;45.17;99523.39;1756188;80;21065;-64
2021/08/11 01:52:42;;;;;;;3.58;2.92;;;;;;;27.19;45.17;99519.86;1748854;80;21023;-63
2021/08/11 01:55:09;;;;;;;3.05;2.83;;;;;;;27.19;45.19;99519.30;1797340;78;20986;-64
2021/08/11 01:57:44;;;;;;;3.25;3.05;;;;;;;27.18;45.25;99528.59;1821037;78;21103;-65
2021/08/11 02:00:12;;;;;;;4.10;2.90;;;;;;;27.18;45.22;99522.34;1816343;78;21045;-64
2021/08/11 02:02:39;;;;;;;3.80;3.50;;;;;;;27.17;45.26;99521.50;1791866;79;21088;-63
2021/08/11 02:05:09;;;;;;;3.92;3.52;;;;;;;27.16;45.19;99528.06;1734258;80;21119;-63
2021/08/11 02:07:38;;;;;;;6.55;3.58;;;;;;;27.15;45.19;99531.88;1762803;79;21089;-64
2021/08/11 02:10:08;;;;;;;3.30;3.00;;;;;;;27.15;45.27;99527.78;1786859;79;21103;-64
2021/08/11 02:12:36;;;;;;;4.20;3.80;;;;;;;27.15;45.38;99530.52;1785447;79;21046;-65
2021/08/11 02:15:07;;;;;;;5.08;3.15;;;;;;;27.15;45.25;99532.44;1791160;80;21533;-64
2021/08/11 02:17:37;;;;;;;3.55;3.20;;;;;;;27.15;45.33;99538.69;1788364;80;21025;-65
2021/08/11 02:22:07;;;;;;;3.70;3.40;;;;;;;27.17;45.31;99535.13;1835567;75;22478;-64
2021/08/11 02:24:36;;;;;;;3.60;3.22;;;;;;;27.12;45.34;99542.53;1804693;77;20996;-65
2021/08/11 02:27:13;;;;;;;3.40;3.10;;;;;;;27.12;45.46;99547.45;1788130;77;21162;-64
2021/08/11 02:29:56;;;;;;;3.40;3.10;;;;;;;27.11;45.44;99542.28;1809229;77;20977;-63
2021/08/11 02:32:26;;;;;;;;;;;;;;;27.12;45.45;99543.89;1798319;77;21532;-63
2021/08/11 02:35:30;;;;;;;3.83;3.52;;;;;;;27.09;45.49;99543.92;1789541;77;20174;-63
2021/08/11 02:38:19;;;;;;;4.08;3.60;;;;;;;27.04;45.62;99543.94;1817961;77;21481;-64
2021/08/11 02:41:25;;;;;;;3.47;3.17;;;;;;;27.02;45.71;99542.88;1798159;77;21198;-64
2021/08/11 02:43:58;;;;;;;4.78;3.40;;;;;;;27.01;45.80;99541.80;1813499;77;20911;-64
2021/08/11 02:46:27;;;;;;;3.52;3.22;;;;;;;26.99;45.79;99541.27;1802648;77;21068;-64
2021/08/11 02:49:05;;;;;;;3.85;3.55;;;;;;;26.98;45.84;99543.70;1807314;77;21010;-63
2021/08/11 02:51:34;;;;;;;3.37;3.08;;;;;;;26.98;45.86;99551.33;1812111;76;21037;-64
2021/08/11 02:54:09;;;;;;;4.55;3.33;;;;;;;26.98;45.79;99545.07;1801838;77;21107;-63
2021/08/11 02:56:38;;;;;;;3.50;3.20;;;;;;;26.97;45.87;99553.00;1803078;77;21025;-64
2021/08/11 02:59:06;;;;;;;3.72;3.37;;;;;;;26.96;45.87;99556.80;1801707;77;21045;-64
2021/08/11 03:01:32;;;;;;;3.80;3.50;;;;;;;26.95;45.92;99561.45;1824016;77;20974;-63
2021/08/11 03:03:59;;;;;;;3.42;3.12;;;;;;;26.96;45.91;99563.62;1751306;78;21518;-65
2021/08/11 03:06:26;;;;;;;5.08;3.75;;;;;;;26.96;45.94;99561.70;1818174;77;21927;-64
2021/08/11 03:08:55;;;;;;;5.80;3.58;;;;;;;26.96;45.91;99561.70;1819911;77;21060;-64
2021/08/11 03:11:22;;;;;;;3.90;3.60;;;;;;;26.96;45.86;99564.98;1785435;77;21000;-63
2021/08/11 03:13:49;;;;;;;3.90;3.60;;;;;;;26.95;45.86;99562.01;1796094;77;20997;-64
2021/08/11 03:16:16;;;;;;;3.77;3.45;;;;;;;26.94;45.89;99558.44;1793712;77;21515;-64
2021/08/11 03:18:43;;;;;;;3.90;3.60;;;;;;;26.94;45.99;99557.64;1799736;77;21354;-63
2021/08/11 03:21:12;;;;;;;3.65;3.33;;;;;;;26.95;46.01;99552.47;1809946;77;21526;-63
2021/08/11 03:23:38;;;;;;;3.87;3.58;;;;;;;26.94;46.01;99551.63;1799345;77;21088;-64
2021/08/11 03:26:06;;;;;;;4.45;3.98;;;;;;;26.94;46.07;99554.91;1790710;77;20978;-62
2021/08/11 03:28:32;;;;;;;4.00;3.60;;;;;;;26.94;46.08;99559.00;1806450;77;20995;-63
2021/08/11 03:31:00;;;;;;;3.80;3.50;;;;;;;26.95;46.03;99557.92;1801995;77;21087;-64
2021/08/11 03:33:27;;;;;;;3.90;3.60;;;;;;;26.94;46.04;99552.19;1797591;77;20982;-62
2021/08/11 03:35:54;;;;;;;3.92;3.62;;;;;;;26.93;46.00;99562.28;1798162;77;21096;-64
2021/08/11 03:38:20;;;;;;;4.37;3.98;;;;;;;26.93;46.03;99564.20;1798895;77;21036;-64
2021/08/11 03:40:49;;;;;;;4.08;3.77;;;;;;;26.93;46.09;99569.09;1803511;77;20997;-64
2021/08/11 03:43:16;;;;;;;4.15;3.85;;;;;;;26.93;46.11;99566.92;1806535;77;21100;-64
2021/08/11 03:45:44;;;;;;;4.60;3.72;;;;;;;26.92;46.13;99563.92;1777426;77;20978;-65
2021/08/11 03:48:11;;;;;;;4.40;4.05;;;;;;;26.92;46.18;99560.64;1810523;77;21147;-65
2021/08/11 03:50:39;;;;;;;4.08;3.50;;;;;;;26.92;46.19;99561.19;1801226;77;20998;-64
2021/08/11 03:53:05;;;;;;;4.95;4.30;;;;;;;26.92;46.21;99561.19;1812730;77;21399;-64
2021/08/11 03:55:33;;;;;;;7.10;3.87;;;;;;;26.93;46.23;99560.11;1801289;77;21128;-64
2021/08/11 03:58:01;;;;;;;4.25;3.85;;;;;;;26.92;46.14;99556.55;1786736;77;20978;-65
2021/08/11 04:00:28;;;;;;;4.20;3.85;;;;;;;26.92;46.26;99555.74;1799954;77;21047;-63
2021/08/11 04:02:54;;;;;;;4.50;4.10;;;;;;;26.91;46.29;99557.66;1800839;77;21057;-64
2021/08/11 04:05:20;;;;;;;4.40;4.00;;;;;;;26.92;46.29;99555.19;1795754;79;20998;-64
2021/08/11 04:07:47;;;;;;;4.92;3.75;;;;;;;26.93;46.25;99560.92;1805658;79;21086;-64
2021/08/11 04:10:13;;;;;;;4.35;3.95;;;;;;;26.93;46.29;99558.75;1804740;78;20982;-66
2021/08/11 04:12:39;;;;;;;5.37;4.20;;;;;;;26.94;46.31;99560.36;1779195;77;22162;-65
2021/08/11 04:15:07;;;;;;;4.30;3.90;;;;;;;26.94;46.32;99559.00;1776943;77;21508;-66
2021/08/11 04:17:33;;;;;;;4.53;4.12;;;;;;;26.95;46.35;99562.01;1800327;77;21096;-65
2021/08/11 04:20:00;;;;;;;4.67;4.20;;;;;;;26.95;46.35;99569.63;1798177;77;21139;-65
2021/08/11 04:22:28;;;;;;;4.40;4.00;;;;;;;26.97;46.39;99569.35;1796087;77;21032;-63
2021/08/11 04:24:54;;;;;;;4.85;4.30;;;;;;;26.97;46.41;99562.54;1731625;80;21091;-65
2021/08/11 04:27:21;;;;;;;3.92;3.62;;;;;;;26.96;46.44;99557.61;1799994;77;21025;-65
2021/08/11 04:29:47;;;;;;;6.20;3.83;;;;;;;26.98;46.46;99557.34;1797430;77;21008;-64
2021/08/11 04:32:13;;;;;;;4.60;4.20;;;;;;;26.99;46.53;99558.98;1797603;77;21782;-65
2021/08/11 04:34:39;;;;;;;5.72;4.00;;;;;;;27.01;46.54;99553.50;1803760;77;21048;-64
2021/08/11 04:37:06;;;;;;;4.22;3.83;;;;;;;27.02;46.57;99554.31;1791264;77;21086;-65
2021/08/11 04:39:33;;;;;;;5.40;4.60;;;;;;;27.03;46.60;99548.59;1809668;77;21539;-65
2021/08/11 04:41:59;;;;;;;5.10;4.70;;;;;;;27.04;46.55;99554.84;1801719;77;21092;-64
2021/08/11 04:44:25;;;;;;;5.67;3.72;;;;;;;27.05;46.56;99556.48;1801310;77;21094;-65
2021/08/11 04:46:52;;;;;;;4.47;4.08;;;;;;;27.05;46.58;99552.40;1801980;77;21092;-64
2021/08/11 04:49:18;;;;;;;4.65;4.22;;;;;;;27.05;46.64;99557.30;1808180;77;21573;-64
2021/08/11 04:51:44;;;;;;;5.30;3.98;;;;;;;27.05;46.69;99555.93;1805925;77;21025;-65
2021/08/11 04:54:10;;;;;;;4.33;3.92;;;;;;;27.07;46.69;99558.38;1811707;77;21072;-65
2021/08/11 04:56:36;;;;;;;6.33;4.20;;;;;;;27.07;46.80;99561.91;1813295;77;21843;-64
2021/08/11 04:59:03;;;;;;;4.80;4.40;;;;;;;27.09;46.82;99563.00;1807957;77;20990;-64
2021/08/11 05:01:29;;;;;;;4.72;4.33;;;;;;;27.09;46.82;99552.09;1814716;77;20990;-64
2021/08/11 05:03:55;;;;;;;6.45;4.00;;;;;;;27.11;46.84;99562.17;1812654;77;21029;-64
2021/08/11 05:06:22;;;;;;;7.42;4.70;;;;;;;27.11;46.82;99555.36;1807702;77;21073;-63
2021/08/11 05:08:48;;;;;;;7.35;6.28;;;;;;;27.13;46.99;99559.97;1806507;77;21137;-64
2021/08/11 05:11:15;;;;;;;6.75;6.05;;;;;;;27.13;47.07;99558.61;1801202;77;21036;-65
2021/08/11 05:13:42;;;;;;;7.83;7.03;;;;;;;27.14;47.08;99556.16;1810798;77;21080;-65
2021/08/11 05:16:08;;;;;;;8.93;6.50;;;;;;;27.14;47.12;99550.71;1808502;77;21559;-66
2021/08/11 05:18:34;;;;;;;9.55;8.40;;;;;;;27.15;47.13;99550.96;1795646;77;21053;-65
2021/08/11 05:21:01;;;;;;;9.78;8.98;;;;;;;27.15;47.20;99544.14;1816512;77;21167;-65
2021/08/11 05:23:27;;;;;;;13.30;9.65;;;;;;;27.15;47.24;99547.43;1804602;77;21100;-64
2021/08/11 05:25:54;;;;;;;12.15;9.63;;;;;;;27.16;47.19;99550.41;1801907;77;21061;-65
2021/08/11 05:28:20;;;;;;;10.72;9.63;;;;;;;27.16;47.25;99540.86;1742706;80;21516;-64
2021/08/11 05:30:46;;;;;;;10.15;9.15;;;;;;;27.16;47.27;99529.95;1755960;80;21211;-66
2021/08/11 05:33:12;;;;;;;11.03;9.68;;;;;;;27.15;47.29;99529.15;1769406;80;21080;-66
2021/08/11 05:35:39;;;;;;;10.50;9.48;;;;;;;27.16;47.39;99528.59;1768711;80;20998;-64
2021/08/11 05:38:05;;;;;;;10.23;9.20;;;;;;;27.18;47.42;99526.42;1777857;80;20993;-65
2021/08/11 05:40:32;;;;;;;11.75;9.15;;;;;;;27.20;47.65;99520.14;1769487;80;21081;-67
2021/08/11 05:42:58;;;;;;;10.63;8.83;;;;;;;27.21;47.59;99514.94;1752287;80;21505;-65
2021/08/11 05:45:24;;;;;;;8.73;7.92;;;;;;;27.21;47.63;99511.65;1760763;80;21109;-65
2021/08/11 05:47:51;;;;;;;11.55;9.60;;;;;;;27.24;47.75;99504.84;1770050;80;21070;-65
2021/08/11 05:50:17;;;;;;;8.78;7.92;;;;;;;27.25;47.95;99505.95;1780672;80;21056;-65
2021/08/11 05:52:43;;;;;;;9.33;8.05;;;;;;;27.27;48.00;99507.00;1749813;80;21016;-65
2021/08/11 05:55:10;;;;;;;8.63;7.90;;;;;;;27.30;48.21;99505.64;1769972;80;21621;-65
2021/08/11 05:57:40;;;;;;;8.68;7.58;;;;;;;27.34;48.45;99513.52;1764328;80;21597;-65
2021/08/11 06:00:09;;;;;;;8.58;7.60;;;;;;;27.36;48.50;99509.95;1780075;78;21052;-65
2021/08/11 06:02:40;;;;;;;10.40;8.13;;;;;;;27.38;48.57;99508.56;1780791;78;21004;-65
2021/08/11 06:05:14;;;;;;;7.58;6.80;;;;;;;27.40;48.59;99502.27;1745872;81;21022;-65
2021/08/11 06:07:40;;;;;;;7.62;6.75;;;;;;;27.43;48.77;99502.27;1770689;80;21127;-65
2021/08/11 06:10:08;;;;;;;8.03;6.45;;;;;;;27.45;48.88;99500.06;1753995;80;21093;-65
2021/08/11 06:12:35;;;;;;;9.35;6.92;;;;;;;27.47;49.00;99493.77;1780128;80;21012;-65
2021/08/11 06:15:01;;;;;;;7.22;6.50;;;;;;;27.48;49.09;99494.58;1755590;80;21023;-65
2021/08/11 06:17:27;;;;;;;6.92;6.33;;;;;;;27.50;49.00;99500.00;1767795;78;21079;-65
2021/08/11 06:19:54;;;;;;;6.67;6.08;;;;;;;27.53;49.12;99499.44;1764291;78;21072;-64
2021/08/11 06:22:22;;;;;;;9.93;6.05;;;;;;;27.55;49.54;99498.60;1752180;80;21119;-65
2021/08/11 06:24:48;;;;;;;11.83;5.60;;;;;;;27.58;49.81;99501.30;1765724;79;21529;-65
2021/08/11 06:27:14;;;;;;;7.97;6.40;;;;;;;27.60;50.10;99495.84;1750458;79;21055;-65
2021/08/11 06:29:41;;;;;;;9.60;7.92;;;;;;;27.63;50.50;99499.89;1758856;79;21075;-65
2021/08/11 06:32:07;;;;;;;8.78;7.20;;;;;;;27.64;50.65;99498.25;1755132;80;20999;-65
2021/08/11 06:34:33;;;;;;;10.00;5.95;;;;;;;27.68;50.93;99495.77;1760641;80;21077;-64
2021/08/11 06:37:00;;;;;;;8.15;5.92;;;;;;;27.72;50.92;99498.70;1747949;79;21038;-64
2021/08/11 06:39:26;;;;;;;6.75;6.10;;;;;;;27.73;51.04;99490.23;1759347;80;21079;-66
2021/08/11 06:41:53;;;;;;;7.67;5.78;;;;;;;27.75;50.89;99492.69;1747313;79;21014;-65
2021/08/11 06:44:21;;;;;;;11.10;6.25;;;;;;;27.77;50.95;99498.11;1750562;79;21078;-65
2021/08/11 06:46:48;;;;;;;7.17;5.12;;;;;;;27.78;51.19;99496.22;1757454;79;21090;-64
2021/08/11 06:49:14;;;;;;;6.20;5.60;;;;;;;27.80;51.22;99498.10;1773496;80;21453;-64
2021/08/11 06:51:40;;;;;;;9.10;5.45;;;;;;;27.83;51.09;99500.23;1756604;79;21019;-63
2021/08/11 06:54:10;;;;;;;6.67;5.12;;;;;;;27.85;51.29;99493.94;1758656;79;21027;-62
2021/08/11 06:56:35;;;;;;;6.53;4.97;;;;;;;27.85;51.36;99493.41;1767804;80;21045;-63
2021/08/11 06:59:01;;;;;;;6.72;5.20;;;;;;;27.88;51.38;99493.94;1764381;79;21149;-64
2021/08/11 07:01:28;;;;;;;7.28;4.90;;;;;;;27.91;51.32;99497.46;1756268;79;21071;-64
2021/08/11 07:03:55;;;;;;;7.33;5.87;;;;;;;27.92;51.17;99492.28;1762081;79;21505;-64
2021/08/11 07:06:22;;;;;;;6.80;4.90;;;;;;;27.93;51.03;99496.09;1764146;79;21029;-68
2021/08/11 07:08:48;;;;;;;6.60;5.10;;;;;;;27.95;50.71;99495.25;1768173;79;21082;-65
2021/08/11 07:11:16;;;;;;;6.92;5.65;;;;;;;27.97;50.66;99494.41;1761283;79;21141;-64
2021/08/11 07:13:42;;;;;;;7.45;4.92;;;;;;;27.98;50.77;99490.55;1749639;80;21058;-64
2021/08/11 07:16:09;;;;;;;5.65;5.10;;;;;;;28.01;50.50;99485.89;1770893;79;20990;-64
2021/08/11 07:18:36;;;;;;;8.65;4.00;;;;;;;28.03;50.51;99480.15;1752118;80;21054;-65
2021/08/11 07:21:03;;;;;;;6.85;4.80;;;;;;;28.06;50.22;99480.91;1770219;79;21116;-64
2021/08/11 07:23:29;;;;;;;5.30;4.35;;;;;;;28.08;49.75;99482.00;1828105;77;21119;-64
2021/08/11 07:25:56;;;;;;;5.60;4.33;;;;;;;28.08;49.81;99480.07;1827280;77;21061;-64
2021/08/11 07:28:22;;;;;;;6.67;4.17;;;;;;;28.11;49.65;99475.97;1822105;77;21458;-64
2021/08/11 07:30:48;;;;;;;5.12;4.33;;;;;;;28.12;49.30;99486.57;1811656;77;21081;-65
2021/08/11 07:33:15;;;;;;;4.67;4.28;;;;;;;28.14;49.54;99478.09;1826116;77;21038;-63
2021/08/11 07:35:42;;;;;;;4.60;4.12;;;;;;;28.16;49.24;99476.72;1827247;77;21162;-65
2021/08/11 07:38:09;;;;;;;4.62;4.10;;;;;;;28.19;49.34;99489.77;1825287;77;21130;-65
2021/08/11 07:40:36;;;;;;;5.78;4.58;;;;;;;28.21;48.84;99488.93;1822075;77;21041;-64
2021/08/11 07:43:04;;;;;;;7.47;4.00;;;;;;;28.23;48.46;99485.91;1824250;77;21025;-64
2021/08/11 07:45:31;;;;;;;4.65;3.80;;;;;;;28.24;48.12;99495.19;1823432;77;21537;-65
2021/08/11 07:47:58;;;;;;;3.80;3.50;;;;;;;28.27;47.92;99486.95;1820596;77;21801;-64
2021/08/11 07:50:29;;;;;;;4.15;3.75;;;;;;;28.30;47.59;99489.64;1821880;77;21596;-65
2021/08/11 07:52:56;;;;;;;5.12;4.42;;;;;;;28.32;47.32;99486.06;1818247;77;21049;-67
2021/08/11 07:55:24;;;;;;;4.33;3.77;;;;;;;28.34;47.28;99490.16;1815746;77;21580;-65
2021/08/11 07:57:51;;;;;;;4.00;3.30;;;;;;;28.36;47.22;99485.20;1802155;78;21070;-64
2021/08/11 08:00:19;;;;;;;4.65;3.70;;;;;;;28.38;46.61;99485.73;1825820;77;21130;-67
2021/08/11 08:02:46;;;;;;;3.85;3.55;;;;;;;28.40;46.38;99485.44;1820667;77;21465;-67
2021/08/11 08:05:13;;;;;;;4.92;4.53;;;;;;;28.41;46.63;99487.05;1821380;77;21474;-65
2021/08/11 08:07:39;;;;;;;7.72;5.92;;;;;;;28.43;47.08;99488.41;1821166;77;21242;-64
2021/08/11 08:10:08;;;;;;;36.50;24.57;;;;;;;28.47;46.82;99485.06;1804409;78;21080;-65
2021/08/11 08:12:34;;;;;;;24.70;16.93;;;;;;;28.48;46.98;99482.61;1828923;77;21055;-65
2021/08/11 08:15:01;;;;;;;25.80;16.77;;;;;;;28.50;47.04;99478.47;1826303;77;21075;-65
2021/08/11 08:17:27;;;;;;;14.15;11.05;;;;;;;28.53;46.75;99476.56;1822359;77;20985;-65
2021/08/11 08:19:54;;;;;;;13.35;8.80;;;;;;;28.54;45.97;99477.36;1824530;77;21080;-65
2021/08/11 08:22:20;;;;;;;11.63;7.83;;;;;;;28.56;45.21;99480.61;1826905;77;21015;-65
2021/08/11 08:24:47;;;;;;;10.93;7.87;;;;;;;28.58;45.58;99476.47;1820830;77;21966;-65
2021/08/11 08:27:13;;;;;;;11.12;8.85;;;;;;;28.60;45.86;99479.72;1821669;77;21075;-64
2021/08/11 08:29:40;;;;;;;9.60;7.92;;;;;;;28.63;46.71;99478.34;1819235;77;21048;-66
2021/08/11 08:32:06;;;;;;;9.00;6.92;;;;;;;28.64;47.20;99471.75;1823668;77;21037;-70
2021/08/11 08:34:33;;;;;;;5.40;4.67;;;;;;;28.66;46.83;99470.90;1827937;77;20994;-66
2021/08/11 08:36:59;;;;;;;7.70;4.92;;;;;;;28.69;45.56;99472.25;1820567;77;21156;-67
2021/08/11 08:39:25;;;;;;;6.60;5.03;;;;;;;28.70;45.87;99467.03;1820192;77;21068;-64
2021/08/11 08:41:53;;;;;;;5.05;4.55;;;;;;;28.71;46.31;99464.00;1816685;77;21069;-67
2021/08/11 08:44:19;;;;;;;4.10;3.70;;;;;;;28.73;45.89;99460.42;1825648;77;21037;-66
2021/08/11 08:46:46;;;;;;;4.70;4.17;;;;;;;28.75;46.03;99460.94;1826291;77;21119;-68
2021/08/11 08:49:17;;;;;;;5.25;4.58;;;;;;;28.77;45.82;99461.45;1824342;77;21074;-65
2021/08/11 08:51:50;;;;;;;4.20;3.80;;;;;;;28.79;46.06;99463.33;1822267;77;21021;-63
2021/08/11 08:54:23;;;;;;;4.67;3.58;;;;;;;28.80;45.08;99470.44;1819588;77;21073;-64
2021/08/11 08:56:50;;;;;;;3.42;3.15;;;;;;;28.81;44.45;99463.84;1820021;77;21045;-62
2021/08/11 08:59:16;;;;;;;4.15;3.72;;;;;;;28.82;43.93;99454.55;1822202;77;21087;-62
2021/08/11 09:01:43;;;;;;;4.08;3.70;;;;;;;28.85;44.01;99453.13;1817897;77;21057;-66
2021/08/11 09:04:09;;;;;;;5.37;4.20;;;;;;;28.88;44.79;99453.09;1823606;78;21107;-64
2021/08/11 09:06:36;;;;;;;4.90;4.08;;;;;;;28.89;45.47;99452.80;1824307;77;21069;-65
2021/08/11 09:09:09;;;;;;;6.25;4.45;;;;;;;28.90;45.86;99450.33;1823794;77;21018;-65
2021/08/11 09:11:41;;;;;;;7.33;4.60;;;;;;;28.92;45.85;99444.02;1826548;77;21013;-64
2021/08/11 09:14:22;;;;;;;4.50;4.10;;;;;;;28.94;45.88;99447.27;1816507;77;21094;-65
2021/08/11 09:16:59;;;;;;;4.45;4.05;;;;;;;28.95;46.07;99437.93;1804531;77;21009;-64
2021/08/11 09:19:40;;;;;;;4.78;3.83;;;;;;;28.97;46.19;99445.84;1814268;77;21069;-64
2021/08/11 09:22:09;;;;;;;3.83;3.52;;;;;;;28.98;45.94;99446.11;1817972;77;21076;-62
2021/08/11 09:24:36;;;;;;;4.25;3.90;;;;;;;29.00;45.51;99434.33;1815693;77;21087;-63
2021/08/11 09:27:23;;;;;;;3.85;3.55;;;;;;;29.01;44.89;99431.30;1807625;77;22857;-65
2021/08/11 09:30:12;;;;;;;4.55;3.58;;;;;;;29.05;44.50;99437.52;1818091;77;21077;-64
2021/08/11 09:32:58;;;;;;;4.00;3.62;;;;;;;29.06;43.78;99437.79;1820000;77;21076;-63
2021/08/11 09:35:32;;;;;;;6.87;3.75;;;;;;;29.06;43.47;99441.89;1813505;77;21050;-65
2021/08/11 09:38:07;;;;;;;3.98;3.58;;;;;;;29.06;43.40;99435.86;1816573;77;21030;-62
2021/08/11 09:40:35;;;;;;;3.72;3.42;;;;;;;29.07;43.45;99433.39;1816896;77;21771;-65
2021/08/11 09:43:08;;;;;;;4.10;3.50;;;;;;;29.09;43.46;99433.91;1818627;77;21005;-64
2021/08/11 09:45:53;;;;;;;4.72;3.67;;;;;;;29.12;43.44;99436.59;1822968;77;21021;-63
2021/08/11 09:48:21;;;;;;;3.50;3.20;;;;;;;29.14;43.26;99435.77;1813575;77;21036;-63
2021/08/11 09:50:58;;;;;;;3.45;3.15;;;;;;;29.17;43.26;99433.25;1818994;77;21026;-67
2021/08/11 09:53:32;;;;;;;4.33;3.27;;;;;;;29.19;43.07;99435.13;1793329;77;21074;-65
2021/08/11 09:56:07;;;;;;;3.58;3.27;;;;;;;29.23;43.05;99437.27;1815253;77;21025;-65
2021/08/11 09:58:36;;;;;;;3.95;3.30;;;;;;;29.25;43.13;99432.31;1817629;77;21002;-66
2021/08/11 10:01:04;;;;;;;4.28;3.33;;;;;;;29.28;43.14;99430.33;1819090;77;21104;-64
2021/08/11 10:03:31;;;;;;;3.83;3.45;;;;;;;29.32;43.16;99435.45;1812950;77;21530;-64
2021/08/11 10:05:58;;;;;;;3.22;2.92;;;;;;;29.34;43.08;99438.16;1817065;77;21075;-64
2021/08/11 10:08:32;;;;;;;3.72;3.42;;;;;;;29.38;43.07;99435.08;1814685;77;20997;-64
2021/08/11 10:11:00;;;;;;;3.60;3.30;;;;;;;29.41;42.92;99426.25;1810094;77;21147;-65
2021/08/11 10:13:28;;;;;;;3.58;3.22;;;;;;;29.47;42.93;99424.80;1816912;77;21569;-65
2021/08/11 10:15:54;;;;;;;3.85;3.55;;;;;;;29.50;42.72;99422.28;1816720;77;21092;-66
2021/08/11 10:18:24;;;;;;;4.15;3.22;;;;;;;29.54;42.62;99420.56;1817719;77;21560;-66
2021/08/11 10:20:56;;;;;;;4.10;3.70;;;;;;;29.57;42.37;99413.13;1810384;77;20991;-66
2021/08/11 10:23:22;;;;;;;3.42;3.12;;;;;;;29.60;42.44;99408.39;1821018;77;21072;-62
2021/08/11 10:25:49;;;;;;;3.75;3.12;;;;;;;29.65;42.58;99403.94;1823241;77;21009;-65
2021/08/11 10:28:21;;;;;;;2.85;2.60;;;;;;;29.69;42.25;99408.52;1826357;77;21067;-68
2021/08/11 10:30:49;;;;;;;3.00;2.60;;;;;;;29.74;37.93;99404.89;1821451;77;21089;-66
2021/08/11 10:33:16;;;;;;;3.10;2.90;;;;;;;29.83;39.38;99407.74;1823025;77;21077;-65
2021/08/11 10:35:47;;;;;;;3.40;3.10;;;;;;;29.87;40.46;99404.64;1825601;77;20997;-65
2021/08/11 10:38:17;;;;;;;3.75;3.45;;;;;;;29.90;40.88;99407.59;1819782;77;21385;-69
2021/08/11 10:40:51;;;;;;;3.33;3.00;;;;;;;29.93;40.33;99400.12;1826283;77;21006;-67
2021/08/11 10:43:18;;;;;;;3.40;3.08;;;;;;;29.91;39.28;99400.18;1813507;77;21348;-67
2021/08/11 10:45:46;;;;;;;3.30;3.00;;;;;;;29.86;38.77;99402.45;1830329;77;21120;-69
2021/08/11 10:48:16;;;;;;;5.08;3.20;;;;;;;29.84;39.07;99399.77;1819799;77;21544;-69
2021/08/11 10:50:44;;;;;;;5.40;3.00;;;;;;;29.84;39.25;99403.31;1827159;77;21056;-69
2021/08/11 10:53:11;;;;;;;4.78;2.65;;;;;;;29.85;39.42;99395.93;1823296;77;21627;-68
2021/08/11 10:55:44;;;;;;;3.70;3.40;;;;;;;29.89;39.45;99402.41;1823484;77;21150;-66
2021/08/11 10:58:11;;;;;;;3.40;2.58;;;;;;;29.92;39.43;99393.57;1824216;77;20993;-66
2021/08/11 11:00:41;;;;;;;4.70;3.10;;;;;;;29.97;39.35;99381.95;1805455;78;21087;-66
2021/08/11 11:03:07;;;;;;;4.85;3.30;;;;;;;30.02;39.21;99386.53;1823445;77;21462;-66
2021/08/11 11:05:48;;;;;;;4.92;3.30;;;;;;;30.07;39.08;99386.97;1823682;77;21029;-64
2021/08/11 11:08:24;;;;;;;4.62;3.12;;;;;;;30.11;38.95;99383.87;1824299;77;21107;-63
2021/08/11 11:10:50;;;;;;;3.05;2.70;;;;;;;30.15;38.95;99385.70;1827107;77;21048;-65
2021/08/11 11:13:35;;;;;;;3.83;3.52;;;;;;;30.18;39.03;99380.16;1828054;77;21057;-65
2021/08/11 11:16:01;;;;;;;;;;;;;;;30.22;39.15;99377.05;1817818;77;21065;-66
2021/08/11 11:18:28;;;;;;;3.55;3.20;;;;;;;30.27;39.41;99374.75;1814006;77;20237;-64
2021/08/11 11:21:03;;;;;;;3.10;2.80;;;;;;;30.26;39.42;99379.99;1817184;77;21757;-65
2021/08/11 11:23:38;;;;;;;2.90;2.70;;;;;;;30.30;39.25;99380.43;1816168;77;21080;-65
2021/08/11 11:26:15;;;;;;;2.80;2.60;;;;;;;30.35;39.17;99374.88;1807077;77;21077;-65
2021/08/11 11:29:00;;;;;;;3.05;2.75;;;;;;;30.42;39.17;99365.41;1810175;77;21061;-65
2021/08/11 11:31:43;;;;;;;3.22;2.67;;;;;;;30.45;39.06;99369.72;1810870;77;21062;-64
2021/08/11 11:34:28;;;;;;;2.92;2.72;;;;;;;30.50;39.07;99364.67;1803014;77;21093;-66
2021/08/11 11:37:02;;;;;;;2.83;2.60;;;;;;;30.53;38.98;99362.69;1812408;77;21066;-65
2021/08/11 11:39:30;;;;;;;3.25;2.83;;;;;;;30.56;38.94;99364.83;1813381;77;21093;-66
2021/08/11 11:42:24;;;;;;;4.80;2.70;;;;;;;30.59;38.95;99364.19;1816175;77;21533;-66
2021/08/11 11:44:59;;;;;;;3.50;3.20;;;;;;;30.63;38.88;99366.55;1813185;77;21096;-66
2021/08/11 11:47:47;;;;;;;5.03;3.22;;;;;;;30.65;38.65;99362.94;1814161;77;21092;-66